Time;durP1;ratioP1;P1;durP2;ratioP2;P2;SDS_P1;SDS_P2;PMS_P1;PMS_P2;Temp;Humidity;BMP_temperature;BMP_pressure;BME280_temperature;BME280_humidity;BME280_pressure;Samples;Min_cycle;Max_cycle;Signal;HPM_P1;HPM_P2
2021/04/14 00:02:17;;;;;;;0.50;0.50;;;2.30;99.90;;;;;;5014828;28;20251;-80
2021/04/14 00:04:42;;;;;;;0.40;0.40;;;2.30;99.90;;;;;;5032217;28;20230;-80
2021/04/14 00:07:11;;;;;;;0.40;0.40;;;2.40;99.90;;;;;;5031208;28;20274;-79
2021/04/14 00:09:37;;;;;;;0.53;0.53;;;2.40;99.90;;;;;;5039613;28;20234;-81
2021/04/14 00:12:03;;;;;;;0.40;0.40;;;2.40;99.90;;;;;;5028330;28;20670;-80
2021/04/14 00:14:29;;;;;;;2.17;1.53;;;2.50;99.90;;;;;;5029369;28;20228;-81
2021/04/14 00:16:57;;;;;;;0.50;0.50;;;2.50;99.90;;;;;;5031370;28;20209;-80
2021/04/14 00:19:24;;;;;;;0.40;0.40;;;2.50;99.90;;;;;;5064374;28;20269;-79
2021/04/14 00:21:50;;;;;;;0.30;0.30;;;2.80;99.90;;;;;;5045993;28;20216;-80
2021/04/14 00:24:18;;;;;;;0.30;0.30;;;3.00;99.90;;;;;;5031951;28;20300;-79
2021/04/14 00:26:44;;;;;;;0.37;0.37;;;3.20;99.90;;;;;;5055188;28;20290;-79
2021/04/14 00:29:11;;;;;;;0.40;0.40;;;3.50;99.90;;;;;;5032902;28;20242;-80
2021/04/14 00:31:38;;;;;;;0.30;0.30;;;3.70;99.90;;;;;;5046444;28;20181;-81
2021/04/14 00:34:13;;;;;;;0.20;0.20;;;3.60;99.90;;;;;;5041994;28;20227;-80
2021/04/14 00:36:42;;;;;;;0.30;0.30;;;3.70;99.90;;;;;;5069646;28;20236;-80
2021/04/14 00:39:15;;;;;;;0.30;0.30;;;3.70;99.90;;;;;;5068612;28;20219;-80
2021/04/14 00:41:42;;;;;;;0.30;0.30;;;3.60;99.90;;;;;;5051142;28;20324;-80
2021/04/14 00:44:09;;;;;;;0.30;0.30;;;3.60;99.90;;;;;;5052476;28;20250;-81
2021/04/14 00:46:35;;;;;;;0.30;0.30;;;3.60;99.90;;;;;;5035630;28;20224;-80
2021/04/14 00:49:00;;;;;;;0.30;0.30;;;3.70;99.90;;;;;;5018606;28;21050;-79
2021/04/14 00:51:27;;;;;;;0.40;0.40;;;3.70;99.90;;;;;;5016835;28;20315;-80
2021/04/14 00:53:53;;;;;;;0.30;0.30;;;3.60;99.90;;;;;;5034334;28;20220;-81
2021/04/14 00:56:19;;;;;;;0.27;0.27;;;3.60;99.90;;;;;;5064318;28;21067;-80
2021/04/14 00:58:45;;;;;;;0.30;0.30;;;3.60;99.90;;;;;;5052510;28;20192;-80
2021/04/14 01:01:11;;;;;;;0.47;0.30;;;3.60;99.90;;;;;;5049726;28;20631;-81
2021/04/14 01:03:38;;;;;;;0.33;0.33;;;3.70;99.90;;;;;;5064996;28;20246;-80
2021/04/14 01:06:07;;;;;;;0.30;0.30;;;3.70;99.90;;;;;;5069967;28;20220;-80
2021/04/14 01:08:34;;;;;;;0.30;0.30;;;3.90;99.90;;;;;;5049595;28;20221;-81
2021/04/14 01:11:00;;;;;;;0.30;0.30;;;4.00;99.90;;;;;;5036177;28;20184;-81
2021/04/14 01:13:29;;;;;;;0.50;0.50;;;3.90;99.90;;;;;;5034734;28;20704;-80
2021/04/14 01:15:54;;;;;;;0.50;0.50;;;3.80;99.90;;;;;;5033153;28;20282;-81
2021/04/14 01:18:32;;;;;;;0.40;0.40;;;3.80;99.90;;;;;;5033792;28;20695;-81
2021/04/14 01:20:59;;;;;;;0.30;0.30;;;3.70;99.90;;;;;;5068460;28;20268;-80
2021/04/14 01:23:27;;;;;;;0.87;0.87;;;3.70;99.90;;;;;;5067969;28;20192;-79
2021/04/14 01:25:53;;;;;;;3.50;0.80;;;3.80;99.90;;;;;;5032875;28;20233;-80
2021/04/14 01:28:23;;;;;;;0.30;0.30;;;3.80;99.90;;;;;;5067639;28;20270;-80
2021/04/14 01:30:52;;;;;;;0.37;0.37;;;3.80;99.90;;;;;;5070237;28;20290;-81
2021/04/14 01:33:19;;;;;;;0.30;0.30;;;4.00;99.90;;;;;;5066788;28;20423;-80
2021/04/14 01:35:44;;;;;;;0.40;0.40;;;4.10;99.90;;;;;;5065463;28;20279;-81
2021/04/14 01:38:11;;;;;;;0.30;0.30;;;4.20;99.90;;;;;;5030719;28;21216;-80
2021/04/14 01:40:37;;;;;;;4.63;0.43;;;4.20;99.90;;;;;;5050902;28;20194;-80
2021/04/14 01:43:05;;;;;;;0.40;0.40;;;4.20;99.90;;;;;;5031767;28;20211;-80
2021/04/14 01:45:34;;;;;;;2.63;0.93;;;4.30;99.90;;;;;;5048906;28;20209;-80
2021/04/14 01:48:01;;;;;;;0.27;0.27;;;4.20;99.90;;;;;;5047882;28;20303;-80
2021/04/14 01:50:27;;;;;;;0.30;0.30;;;4.00;99.90;;;;;;5048730;28;20238;-80
2021/04/14 01:52:55;;;;;;;0.47;0.47;;;3.90;99.90;;;;;;5033958;28;20188;-80
2021/04/14 01:55:21;;;;;;;0.30;0.30;;;4.00;99.90;;;;;;5029464;28;20208;-79
2021/04/14 01:57:48;;;;;;;0.50;0.50;;;4.10;99.90;;;;;;5050867;28;20258;-80
2021/04/14 02:00:20;;;;;;;0.30;0.30;;;4.10;99.90;;;;;;5049188;28;20252;-79
2021/04/14 02:02:47;;;;;;;0.30;0.30;;;4.20;99.90;;;;;;5065723;28;20271;-80
2021/04/14 02:05:14;;;;;;;0.30;0.30;;;4.20;99.90;;;;;;5049568;28;20193;-80
2021/04/14 02:07:39;;;;;;;0.50;0.50;;;4.20;99.90;;;;;;5048818;28;20641;-79
2021/04/14 02:10:08;;;;;;;0.40;0.40;;;4.20;99.90;;;;;;5032868;28;20215;-80
2021/04/14 02:12:35;;;;;;;0.47;0.47;;;4.20;99.90;;;;;;5067931;28;20208;-81
2021/04/14 02:15:03;;;;;;;2.10;0.50;;;4.10;99.90;;;;;;5066472;28;20212;-81
2021/04/14 02:17:29;;;;;;;0.40;0.40;;;4.00;99.90;;;;;;5063720;28;20209;-80
2021/04/14 02:19:55;;;;;;;0.43;0.43;;;4.00;99.90;;;;;;5049860;28;20246;-80
2021/04/14 02:22:20;;;;;;;0.60;0.60;;;3.90;99.90;;;;;;5025011;28;20225;-80
2021/04/14 02:24:46;;;;;;;0.50;0.50;;;3.90;99.90;;;;;;5034359;28;20676;-81
2021/04/14 02:27:12;;;;;;;1.33;0.60;;;3.80;99.90;;;;;;5049251;28;20546;-81
2021/04/14 02:29:37;;;;;;;0.30;0.30;;;3.80;99.90;;;;;;5017272;28;20224;-81
2021/04/14 02:32:04;;;;;;;0.30;0.30;;;3.80;99.90;;;;;;5016026;28;20182;-81
2021/04/14 02:34:30;;;;;;;3.40;0.70;;;3.70;99.90;;;;;;5067815;28;20209;-81
2021/04/14 02:36:56;;;;;;;0.40;0.40;;;3.70;99.90;;;;;;5048204;28;20217;-79
2021/04/14 02:39:21;;;;;;;0.40;0.40;;;3.70;99.90;;;;;;5031633;28;20244;-81
2021/04/14 02:41:47;;;;;;;0.50;0.50;;;3.70;99.90;;;;;;5033663;28;20209;-80
2021/04/14 02:44:13;;;;;;;2.20;0.53;;;3.60;99.90;;;;;;5047401;28;20201;-83
2021/04/14 02:46:39;;;;;;;0.47;0.47;;;3.50;99.90;;;;;;5033196;28;20198;-81
2021/04/14 02:49:04;;;;;;;1.20;1.17;;;3.40;99.90;;;;;;5050010;28;21175;-80
2021/04/14 02:51:30;;;;;;;0.50;0.50;;;3.30;99.90;;;;;;5033092;28;20232;-81
2021/04/14 02:53:56;;;;;;;0.77;0.77;;;3.30;99.90;;;;;;5030110;28;20212;-81
2021/04/14 02:56:22;;;;;;;0.30;0.30;;;3.30;99.90;;;;;;5030627;28;20224;-81
2021/04/14 02:58:48;;;;;;;0.53;0.50;;;3.30;99.90;;;;;;5034798;28;20269;-80
2021/04/14 03:01:15;;;;;;;0.80;0.80;;;3.20;99.90;;;;;;5030550;28;20303;-80
2021/04/14 03:03:41;;;;;;;1.20;0.50;;;3.20;99.90;;;;;;5063924;28;20217;-80
2021/04/14 03:06:07;;;;;;;0.40;0.40;;;3.20;99.90;;;;;;5048248;28;20278;-81
2021/04/14 03:08:32;;;;;;;0.40;0.40;;;3.20;99.90;;;;;;5040109;28;20281;-80
2021/04/14 03:10:58;;;;;;;0.70;0.50;;;3.20;99.90;;;;;;5065729;28;20538;-80
2021/04/14 03:13:25;;;;;;;0.63;0.63;;;3.10;99.90;;;;;;5033803;28;20213;-80
2021/04/14 03:15:51;;;;;;;0.60;0.60;;;3.10;99.90;;;;;;5047604;28;20236;-80
2021/04/14 03:18:17;;;;;;;0.47;0.47;;;3.00;99.90;;;;;;5047090;28;20229;-80
2021/04/14 03:20:43;;;;;;;0.40;0.40;;;3.00;99.90;;;;;;5031371;28;20704;-80
2021/04/14 03:23:11;;;;;;;0.40;0.40;;;3.00;99.90;;;;;;5063927;28;20242;-81
2021/04/14 03:25:38;;;;;;;0.43;0.43;;;2.90;99.90;;;;;;5048582;28;20236;-81
2021/04/14 03:28:04;;;;;;;0.60;0.60;;;2.90;99.90;;;;;;5067086;28;20566;-81
2021/04/14 03:30:31;;;;;;;0.50;0.50;;;2.80;99.90;;;;;;5065786;28;20218;-80
2021/04/14 03:32:57;;;;;;;0.67;0.60;;;2.70;99.90;;;;;;5063990;28;20232;-81
2021/04/14 03:35:25;;;;;;;0.63;0.40;;;2.70;99.90;;;;;;5047677;28;20780;-81
2021/04/14 03:37:51;;;;;;;0.40;0.40;;;2.70;99.90;;;;;;5048727;28;20332;-78
2021/04/14 03:40:17;;;;;;;0.83;0.83;;;2.60;99.90;;;;;;5047477;28;20219;-80
2021/04/14 03:42:44;;;;;;;0.40;0.40;;;2.60;99.90;;;;;;5067577;28;20228;-81
2021/04/14 03:45:17;;;;;;;1.37;1.17;;;2.50;99.90;;;;;;5064121;28;20241;-78
2021/04/14 03:47:44;;;;;;;0.40;0.40;;;2.50;99.90;;;;;;5046317;28;20587;-79
2021/04/14 03:50:15;;;;;;;0.40;0.40;;;2.50;99.90;;;;;;5047119;28;20181;-79
2021/04/14 03:52:41;;;;;;;0.80;0.80;;;2.50;99.90;;;;;;5046699;28;20189;-79
2021/04/14 03:55:10;;;;;;;0.60;0.60;;;2.50;99.90;;;;;;5045392;28;20749;-79
2021/04/14 03:57:36;;;;;;;0.30;0.30;;;2.50;99.90;;;;;;5065099;28;20484;-79
2021/04/14 04:00:09;;;;;;;0.50;0.50;;;2.50;99.90;;;;;;5065596;28;20219;-79
2021/04/14 04:02:35;;;;;;;0.53;0.40;;;2.50;99.90;;;;;;5047482;28;20217;-79
2021/04/14 04:05:00;;;;;;;0.40;0.40;;;2.50;99.90;;;;;;5016507;28;20529;-79
2021/04/14 04:07:26;;;;;;;0.73;0.50;;;2.50;99.90;;;;;;5031570;28;20247;-79
2021/04/14 04:09:52;;;;;;;0.47;0.47;;;2.50;99.90;;;;;;5014631;28;20221;-79
2021/04/14 04:12:19;;;;;;;0.40;0.40;;;2.50;99.90;;;;;;5031936;28;20328;-80
2021/04/14 04:14:51;;;;;;;0.30;0.30;;;2.40;99.90;;;;;;5028971;28;20517;-79
2021/04/14 04:17:19;;;;;;;1.33;1.23;;;2.40;99.90;;;;;;5029321;28;20217;-80
2021/04/14 04:19:45;;;;;;;0.40;0.40;;;2.30;99.90;;;;;;5049087;28;20188;-82
2021/04/14 04:22:13;;;;;;;0.40;0.40;;;2.30;99.90;;;;;;5031453;28;20219;-79
2021/04/14 04:24:39;;;;;;;1.03;1.03;;;2.40;99.90;;;;;;5045576;28;20216;-79
2021/04/14 04:27:05;;;;;;;0.37;0.37;;;2.40;99.90;;;;;;5044213;28;20232;-79
2021/04/14 04:29:31;;;;;;;1.47;0.90;;;2.30;99.90;;;;;;5043735;28;20225;-79
2021/04/14 04:31:57;;;;;;;0.30;0.30;;;2.30;99.90;;;;;;5028398;28;20181;-79
2021/04/14 04:34:23;;;;;;;0.30;0.30;;;2.30;99.90;;;;;;5028862;28;21022;-80
2021/04/14 04:36:50;;;;;;;0.43;0.43;;;2.30;99.90;;;;;;5031825;28;20230;-81
2021/04/14 04:39:16;;;;;;;0.60;0.60;;;2.40;99.90;;;;;;5059732;28;20229;-81
2021/04/14 04:41:42;;;;;;;0.60;0.60;;;2.40;99.90;;;;;;5028591;28;20745;-79
2021/04/14 04:44:08;;;;;;;0.63;0.40;;;2.50;99.90;;;;;;5029128;28;20190;-82
2021/04/14 04:46:34;;;;;;;0.43;0.43;;;2.50;99.90;;;;;;5033557;28;21072;-82
2021/04/14 04:48:59;;;;;;;0.83;0.83;;;2.50;99.90;;;;;;5045549;28;20217;-81
2021/04/14 04:51:25;;;;;;;1.50;1.20;;;2.40;99.90;;;;;;5030078;28;20225;-81
2021/04/14 04:53:51;;;;;;;0.60;0.60;;;2.50;99.90;;;;;;5045406;28;20220;-81
2021/04/14 04:56:21;;;;;;;0.77;0.60;;;2.50;99.90;;;;;;5024580;28;20213;-82
2021/04/14 04:58:46;;;;;;;0.50;0.50;;;2.50;99.90;;;;;;5013871;28;20224;-80
2021/04/14 05:01:12;;;;;;;0.40;0.40;;;2.60;99.90;;;;;;5029520;28;20324;-80
2021/04/14 05:03:38;;;;;;;0.43;0.43;;;2.70;99.90;;;;;;5023333;28;21176;-81
2021/04/14 05:06:04;;;;;;;0.30;0.30;;;2.70;99.90;;;;;;5047574;28;20465;-81
2021/04/14 05:08:30;;;;;;;0.47;0.47;;;2.60;99.90;;;;;;5031631;28;20290;-82
2021/04/14 05:10:56;;;;;;;0.53;0.53;;;2.70;99.90;;;;;;5033039;28;21020;-82
2021/04/14 05:13:24;;;;;;;0.40;0.40;;;2.70;99.90;;;;;;5030179;28;20223;-82
2021/04/14 05:15:50;;;;;;;0.60;0.60;;;2.80;99.90;;;;;;5066347;28;20225;-82
2021/04/14 05:18:17;;;;;;;0.87;0.70;;;3.20;99.90;;;;;;5017139;28;20228;-81
2021/04/14 05:20:43;;;;;;;0.50;0.50;;;4.10;99.90;;;;;;5030106;28;20221;-82
2021/04/14 05:23:10;;;;;;;0.30;0.30;;;4.30;99.90;;;;;;5039830;28;20238;-82
2021/04/14 05:25:40;;;;;;;0.63;0.63;;;4.20;99.90;;;;;;5052772;28;20240;-81
2021/04/14 05:28:10;;;;;;;0.40;0.40;;;4.00;99.90;;;;;;5051490;28;20336;-83
2021/04/14 05:30:36;;;;;;;0.70;0.70;;;3.80;99.90;;;;;;5069284;28;20238;-79
2021/04/14 05:33:04;;;;;;;0.57;0.57;;;3.80;99.90;;;;;;5052104;28;20208;-79
2021/04/14 05:35:30;;;;;;;0.40;0.40;;;4.00;99.90;;;;;;5037030;28;20277;-82
2021/04/14 05:37:56;;;;;;;0.60;0.60;;;4.00;99.90;;;;;;5019817;28;20581;-81
2021/04/14 05:40:23;;;;;;;3.30;0.50;;;4.10;99.90;;;;;;5052164;28;20224;-82
2021/04/14 05:42:50;;;;;;;0.37;0.37;;;4.00;99.90;;;;;;5067874;28;20209;-82
2021/04/14 05:45:25;;;;;;;0.87;0.87;;;4.10;99.90;;;;;;5063858;28;20312;-81
2021/04/14 05:47:51;;;;;;;0.60;0.60;;;6.00;99.90;;;;;;5065763;28;20262;-81
2021/04/14 05:50:20;;;;;;;0.67;0.67;;;9.00;99.90;;;;;;5051420;28;20568;-82
2021/04/14 05:52:46;;;;;;;0.70;0.70;;;11.40;99.90;;;;;;5052459;28;20185;-82
2021/04/14 05:55:12;;;;;;;0.50;0.43;;;13.50;99.90;;;;;;5034721;28;20258;-82
2021/04/14 05:57:39;;;;;;;0.47;0.47;;;14.60;99.90;;;;;;5052196;28;21342;-81
2021/04/14 06:00:08;;;;;;;0.70;0.70;;;15.00;99.90;;;;;;5034123;28;20252;-83
2021/04/14 06:02:34;;;;;;;0.30;0.30;;;13.90;99.90;;;;;;5052582;28;20225;-83
2021/04/14 06:04:59;;;;;;;1.73;1.63;;;14.00;99.90;;;;;;5038668;28;20238;-82
2021/04/14 06:07:26;;;;;;;3.80;0.40;;;14.50;99.90;;;;;;5053148;28;20216;-81
2021/04/14 06:09:52;;;;;;;0.40;0.40;;;14.70;99.90;;;;;;5051334;28;20223;-82
2021/04/14 06:12:18;;;;;;;0.23;0.23;;;14.60;99.90;;;;;;5050540;28;20731;-82
2021/04/14 06:14:46;;;;;;;2.80;1.47;;;14.80;99.90;;;;;;5032066;28;20247;-81
2021/04/14 06:17:12;;;;;;;0.80;0.40;;;14.10;99.90;;;;;;5049197;28;20213;-81
2021/04/14 06:19:40;;;;;;;1.00;0.60;;;15.00;99.90;;;;;;5046833;28;20247;-81
2021/04/14 06:22:06;;;;;;;0.90;0.80;;;16.10;99.90;;;;;;5031961;28;20211;-82
2021/04/14 06:24:32;;;;;;;0.60;0.60;;;14.40;99.90;;;;;;5015143;28;20224;-80
2021/04/14 06:27:02;;;;;;;4.40;0.50;;;14.90;99.90;;;;;;5047972;28;20236;-83
2021/04/14 06:29:28;;;;;;;2.43;1.00;;;15.90;99.90;;;;;;5034141;28;20275;-82
2021/04/14 06:31:55;;;;;;;3.40;0.60;;;15.90;99.90;;;;;;5053145;28;20209;-81
2021/04/14 06:34:23;;;;;;;2.33;0.60;;;15.50;99.90;;;;;;5052436;28;21153;-81
2021/04/14 06:36:53;;;;;;;0.93;0.43;;;15.00;99.90;;;;;;5065718;28;20226;-82
2021/04/14 06:39:20;;;;;;;4.40;0.87;;;14.90;99.90;;;;;;5047026;28;20224;-83
2021/04/14 06:44:40;;;;;;;1.90;0.70;;;14.90;99.90;;;;;;5065599;28;20193;-81
2021/04/14 06:47:38;;;;;;;0.50;0.50;;;14.60;99.90;;;;;;5059403;28;20227;-80
2021/04/14 06:50:08;;;;;;;0.70;0.70;;;14.80;99.90;;;;;;5030068;28;20220;-81
2021/04/14 06:52:46;;;;;;;0.30;0.30;;;15.70;99.90;;;;;;5047692;28;20217;-81
2021/04/14 06:55:17;;;;;;;0.40;0.40;;;14.90;99.90;;;;;;5063251;28;20231;-81
2021/04/14 06:57:50;;;;;;;0.37;0.37;;;16.40;99.90;;;;;;5066687;28;20228;-84
2021/04/14 07:00:22;;;;;;;1.53;0.70;;;16.60;99.90;;;;;;5051080;28;20513;-84
2021/04/14 07:03:00;;;;;;;4.90;0.33;;;16.40;99.90;;;;;;5065202;28;20244;-80
2021/04/14 07:05:30;;;;;;;0.33;0.33;;;16.40;99.90;;;;;;5047930;28;20192;-82
2021/04/14 07:08:00;;;;;;;0.60;0.60;;;16.10;99.90;;;;;;5050183;28;20197;-82
2021/04/14 07:10:31;;;;;;;0.30;0.30;;;16.60;99.90;;;;;;5067077;28;20209;-81
2021/04/14 07:13:03;;;;;;;0.40;0.40;;;16.10;99.90;;;;;;5049277;28;20221;-83
2021/04/14 07:15:30;;;;;;;0.80;0.70;;;13.40;99.90;;;;;;5050071;28;20213;-81
2021/04/14 07:18:28;;;;;;;0.60;0.60;;;13.80;99.90;;;;;;5033993;28;20229;-83
2021/04/14 07:21:09;;;;;;;0.70;0.70;;;14.00;99.90;;;;;;5041639;28;20221;-82
2021/04/14 07:24:02;;;;;;;1.87;0.50;;;13.80;99.90;;;;;;5050293;28;20798;-82
2021/04/14 07:26:37;;;;;;;2.10;0.63;;;13.60;99.90;;;;;;5067670;28;20239;-84
2021/04/14 07:29:29;;;;;;;2.73;0.57;;;13.00;99.90;;;;;;5051744;28;20735;-82
2021/04/14 07:32:19;;;;;;;2.27;0.53;;;11.60;99.90;;;;;;5050868;28;20718;-82
2021/04/14 07:35:11;;;;;;;0.70;0.70;;;11.80;99.90;;;;;;5066742;28;20243;-83
2021/04/14 07:38:08;;;;;;;0.57;0.30;;;11.80;99.90;;;;;;5067283;28;20340;-82
2021/04/14 07:40:52;;;;;;;2.73;0.70;;;11.30;99.90;;;;;;5046321;28;20221;-81
2021/04/14 07:43:57;;;;;;;0.60;0.40;;;11.20;99.90;;;;;;5049521;28;20236;-82
2021/04/14 07:46:24;;;;;;;1.50;0.33;;;10.80;99.90;;;;;;5048652;28;20266;-82
2021/04/14 07:48:53;;;;;;;1.10;0.67;;;11.50;99.90;;;;;;5036136;28;20217;-82
2021/04/14 07:51:19;;;;;;;0.20;0.20;;;14.10;99.90;;;;;;5048523;28;20221;-83
2021/04/14 07:54:18;;;;;;;2.57;0.63;;;12.20;99.90;;;;;;5044541;28;20220;-82
2021/04/14 07:56:54;;;;;;;0.40;0.40;;;12.20;99.90;;;;;;5030807;28;20258;-81
2021/04/14 07:59:27;;;;;;;2.97;0.83;;;11.10;99.90;;;;;;5048636;28;20229;-83
2021/04/14 08:02:06;;;;;;;0.27;0.27;;;11.80;99.90;;;;;;5050739;28;20559;-80
2021/04/14 08:04:36;;;;;;;0.77;0.40;;;13.10;99.90;;;;;;5064735;28;20208;-81
2021/04/14 08:07:08;;;;;;;0.77;0.77;;;12.50;99.90;;;;;;5047220;28;20221;-81
2021/04/14 08:09:46;;;;;;;1.20;0.30;;;10.10;99.90;;;;;;5043911;28;20216;-82
2021/04/14 08:12:12;;;;;;;2.83;1.07;;;9.50;99.90;;;;;;5045052;28;20213;-83
2021/04/14 08:14:41;;;;;;;0.87;0.60;;;8.50;99.90;;;;;;5068118;28;21165;-81
2021/04/14 08:17:29;;;;;;;2.27;1.60;;;8.20;99.90;;;;;;5037183;28;20495;-82
2021/04/14 08:20:05;;;;;;;0.43;0.23;;;7.80;99.90;;;;;;5058952;28;20232;-82
2021/04/14 08:22:31;;;;;;;0.23;0.23;;;7.60;99.90;;;;;;5050598;28;20765;-82
2021/04/14 08:25:05;;;;;;;0.30;0.30;;;7.30;99.90;;;;;;5049327;28;20255;-81
2021/04/14 08:27:35;;;;;;;0.30;0.30;;;7.00;99.90;;;;;;5048831;28;20769;-82
2021/04/14 08:30:13;;;;;;;0.50;0.50;;;6.90;99.90;;;;;;5066579;28;20339;-83
2021/04/14 08:33:00;;;;;;;1.07;1.00;;;6.90;99.90;;;;;;5069784;28;20213;-81
2021/04/14 08:35:38;;;;;;;0.40;0.40;;;7.00;99.90;;;;;;5049671;28;20177;-82
2021/04/14 08:38:17;;;;;;;0.20;0.20;;;7.00;99.90;;;;;;5052355;28;20296;-82
2021/04/14 08:40:47;;;;;;;0.40;0.40;;;7.00;99.90;;;;;;5050166;28;20311;-83
2021/04/14 08:43:31;;;;;;;7.90;0.73;;;7.30;99.90;;;;;;5053634;28;20689;-82
2021/04/14 08:46:10;;;;;;;1.13;1.07;;;8.20;99.90;;;;;;5049039;28;20226;-81
2021/04/14 08:48:37;;;;;;;0.93;0.63;;;9.40;99.90;;;;;;5047252;28;20227;-81
2021/04/14 08:51:04;;;;;;;1.27;0.50;;;10.80;99.90;;;;;;5067139;28;20716;-81
2021/04/14 08:53:39;;;;;;;0.47;0.47;;;12.30;99.90;;;;;;5051429;28;20335;-81
2021/04/14 08:56:06;;;;;;;0.63;0.63;;;13.80;99.90;;;;;;5050960;28;20311;-81
2021/04/14 08:58:32;;;;;;;0.30;0.30;;;14.80;99.90;;;;;;5069325;28;20641;-81
2021/04/14 09:00:58;;;;;;;8.40;0.77;;;14.70;99.90;;;;;;5073122;28;20229;-81
2021/04/14 09:03:27;;;;;;;2.27;0.60;;;13.70;99.90;;;;;;5053969;28;20251;-81
2021/04/14 09:05:53;;;;;;;0.90;0.83;;;11.40;99.90;;;;;;5053807;28;20822;-82
2021/04/14 09:08:22;;;;;;;0.50;0.40;;;12.10;99.90;;;;;;5036329;28;20507;-80
2021/04/14 09:10:54;;;;;;;1.10;0.63;;;13.60;99.90;;;;;;5055511;28;20192;-83
2021/04/14 09:13:35;;;;;;;0.70;0.37;;;14.40;99.90;;;;;;5067459;28;20214;-82
2021/04/14 09:16:04;;;;;;;1.83;0.40;;;15.10;99.90;;;;;;5049120;28;20213;-82
2021/04/14 09:18:38;;;;;;;3.30;0.63;;;15.00;99.90;;;;;;5071068;28;20229;-82
2021/04/14 09:21:23;;;;;;;1.30;0.70;;;14.50;99.90;;;;;;5051943;28;20209;-82
2021/04/14 09:24:07;;;;;;;2.40;0.53;;;14.30;99.90;;;;;;5066473;28;20229;-83
2021/04/14 09:26:38;;;;;;;2.87;0.40;;;14.20;99.90;;;;;;5049735;28;20320;-83
2021/04/14 09:29:33;;;;;;;0.53;0.53;;;13.30;99.90;;;;;;5052723;28;20268;-81
2021/04/14 09:32:08;;;;;;;0.30;0.30;;;13.30;99.90;;;;;;5049144;28;20693;-82
2021/04/14 09:34:49;;;;;;;0.73;0.43;;;13.50;99.90;;;;;;5048990;28;20807;-82
2021/04/14 09:37:18;;;;;;;0.30;0.30;;;13.00;99.90;;;;;;5050927;28;20224;-81
2021/04/14 09:40:00;;;;;;;0.47;0.47;;;13.20;99.90;;;;;;5047138;28;20237;-82
2021/04/14 09:42:28;;;;;;;0.70;0.70;;;11.40;99.90;;;;;;5046745;28;20274;-81
2021/04/14 09:44:56;;;;;;;0.57;0.43;;;11.80;99.90;;;;;;5044569;28;20681;-82
2021/04/14 09:47:28;;;;;;;0.67;0.57;;;12.20;99.90;;;;;;5050028;28;20197;-82
2021/04/14 09:49:56;;;;;;;1.07;0.97;;;13.50;99.90;;;;;;5052854;28;20519;-83
2021/04/14 09:52:46;;;;;;;0.30;0.30;;;13.40;99.90;;;;;;5051002;28;20280;-84
2021/04/14 09:55:26;;;;;;;0.50;0.40;;;11.30;99.90;;;;;;5048237;28;21064;-82
2021/04/14 09:57:52;;;;;;;0.27;0.27;;;10.50;99.90;;;;;;5048125;28;20277;-82
2021/04/14 10:00:27;;;;;;;0.30;0.30;;;10.50;99.90;;;;;;5052707;28;20221;-82
2021/04/14 10:03:00;;;;;;;2.53;0.60;;;10.00;99.90;;;;;;5049228;28;20232;-81
2021/04/14 10:05:31;;;;;;;0.33;0.33;;;10.30;99.90;;;;;;5051477;28;20276;-81
2021/04/14 10:08:03;;;;;;;0.50;0.50;;;11.20;99.90;;;;;;5050481;28;20193;-81
2021/04/14 10:10:32;;;;;;;0.40;0.40;;;11.50;99.90;;;;;;5050081;28;20677;-82
2021/04/14 10:13:08;;;;;;;0.87;0.30;;;12.20;99.90;;;;;;5047436;28;20210;-81
2021/04/14 10:15:38;;;;;;;3.40;0.50;;;12.60;99.90;;;;;;5030777;28;20575;-83
2021/04/14 10:18:09;;;;;;;0.53;0.53;;;12.40;99.90;;;;;;5052041;28;20744;-82
2021/04/14 10:20:37;;;;;;;0.50;0.50;;;12.30;99.90;;;;;;5050457;28;20209;-82
2021/04/14 10:23:09;;;;;;;0.77;0.47;;;12.00;99.90;;;;;;5052447;28;20222;-82
2021/04/14 10:25:38;;;;;;;0.30;0.30;;;12.30;99.90;;;;;;5051590;28;20698;-82
2021/04/14 10:28:22;;;;;;;0.87;0.70;;;11.50;99.90;;;;;;5049574;28;20204;-82
2021/04/14 10:30:59;;;;;;;0.30;0.30;;;11.90;99.90;;;;;;5046613;28;20251;-82
2021/04/14 10:33:26;;;;;;;2.43;0.80;;;11.80;99.90;;;;;;5044361;28;20278;-82
2021/04/14 10:35:53;;;;;;;0.63;0.47;;;11.80;99.90;;;;;;5033949;28;20304;-82
2021/04/14 10:38:34;;;;;;;0.67;0.67;;;10.60;99.90;;;;;;5052426;28;20737;-82
2021/04/14 10:41:11;;;;;;;1.53;0.40;;;10.70;99.90;;;;;;5068349;28;20196;-83
2021/04/14 10:43:36;;;;;;;1.40;0.30;;;10.80;99.90;;;;;;5051386;28;20221;-83
2021/04/14 10:46:21;;;;;;;1.50;1.23;;;10.80;99.90;;;;;;5018471;28;20220;-80
2021/04/14 10:48:56;;;;;;;1.37;0.70;;;10.60;99.90;;;;;;5052128;28;20209;-82
2021/04/14 10:51:26;;;;;;;2.10;0.40;;;10.30;99.90;;;;;;5051887;28;20223;-81
2021/04/14 10:53:56;;;;;;;0.77;0.77;;;10.80;99.90;;;;;;5067483;28;20217;-81
2021/04/14 10:56:28;;;;;;;0.53;0.53;;;10.70;99.90;;;;;;5046538;28;20205;-81
2021/04/14 10:58:56;;;;;;;0.73;0.40;;;11.20;99.90;;;;;;5070803;28;20196;-82
2021/04/14 11:01:39;;;;;;;2.27;0.70;;;11.00;99.90;;;;;;5050282;28;20217;-81
2021/04/14 11:04:08;;;;;;;0.50;0.37;;;11.50;99.90;;;;;;5050169;28;20205;-82
2021/04/14 11:06:35;;;;;;;0.43;0.23;;;10.40;99.90;;;;;;5051106;28;20213;-82
2021/04/14 11:09:02;;;;;;;0.63;0.50;;;9.70;99.90;;;;;;5052639;28;20300;-81
2021/04/14 11:11:28;;;;;;;3.40;0.70;;;9.20;99.90;;;;;;5033335;28;20223;-80
2021/04/14 11:13:55;;;;;;;0.20;0.20;;;9.20;99.90;;;;;;5034751;28;20180;-82
2021/04/14 11:16:21;;;;;;;3.63;0.70;;;9.40;99.90;;;;;;5032908;28;20228;-82
2021/04/14 11:18:47;;;;;;;0.57;0.50;;;9.00;99.90;;;;;;5024190;28;20224;-82
2021/04/14 11:21:31;;;;;;;1.33;0.70;;;9.20;99.90;;;;;;5033000;28;20434;-82
2021/04/14 11:24:17;;;;;;;0.70;0.40;;;9.80;99.90;;;;;;5048107;28;20228;-82
2021/04/14 11:27:14;;;;;;;0.47;0.47;;;10.20;99.90;;;;;;5050528;28;20233;-84
2021/04/14 11:29:40;;;;;;;3.53;0.80;;;9.70;99.90;;;;;;5035100;28;20228;-81
2021/04/14 11:32:22;;;;;;;0.50;0.50;;;9.80;99.90;;;;;;5051681;28;20250;-81
2021/04/14 11:34:55;;;;;;;0.20;0.20;;;10.30;99.90;;;;;;5052741;28;20561;-82
2021/04/14 11:37:35;;;;;;;0.40;0.20;;;11.00;99.90;;;;;;5058956;28;20240;-82
2021/04/14 11:40:18;;;;;;;0.30;0.30;;;10.40;99.90;;;;;;5067280;28;20220;-82
2021/04/14 11:43:17;;;;;;;0.20;0.20;;;9.40;99.90;;;;;;5068257;28;20234;-81
2021/04/14 11:45:43;;;;;;;0.40;0.40;;;9.00;99.90;;;;;;5060587;28;20221;-81
2021/04/14 11:48:15;;;;;;;0.37;0.37;;;8.90;99.90;;;;;;5047955;28;21058;-83
2021/04/14 11:50:43;;;;;;;0.20;0.20;;;9.70;99.90;;;;;;5052004;28;20208;-82
2021/04/14 11:53:28;;;;;;;1.37;0.50;;;9.60;99.90;;;;;;5047817;28;20181;-81
2021/04/14 11:55:55;;;;;;;1.20;0.87;;;8.90;99.90;;;;;;5043954;28;20227;-81
2021/04/14 11:58:36;;;;;;;0.30;0.30;;;9.80;99.90;;;;;;5057008;28;20576;-82
2021/04/14 12:01:06;;;;;;;0.33;0.33;;;9.00;99.90;;;;;;5063299;28;20224;-81
2021/04/14 12:03:34;;;;;;;0.83;0.83;;;8.80;99.90;;;;;;5027191;28;20216;-80
2021/04/14 12:06:02;;;;;;;0.40;0.40;;;9.40;99.90;;;;;;5048970;28;20216;-81
2021/04/14 12:08:32;;;;;;;1.23;0.50;;;9.50;99.90;;;;;;5066551;28;20280;-81
2021/04/14 12:11:00;;;;;;;1.70;0.73;;;9.70;99.90;;;;;;5048446;28;20188;-81
2021/04/14 12:13:27;;;;;;;0.50;0.50;;;9.40;99.90;;;;;;5030361;28;20701;-80
2021/04/14 12:15:56;;;;;;;1.03;1.03;;;9.50;99.90;;;;;;5028645;28;20225;-81
2021/04/14 12:18:22;;;;;;;0.10;0.10;;;9.30;99.90;;;;;;5013972;28;20221;-81
2021/04/14 12:20:48;;;;;;;0.33;0.33;;;9.10;99.90;;;;;;5047544;28;20254;-81
2021/04/14 12:23:14;;;;;;;0.83;0.20;;;8.60;99.90;;;;;;5031288;28;20219;-80
2021/04/14 12:25:41;;;;;;;1.07;0.23;;;8.90;99.90;;;;;;5048545;28;20311;-81
2021/04/14 12:28:07;;;;;;;2.53;0.80;;;9.20;99.90;;;;;;5043634;28;20217;-81
2021/04/14 12:30:34;;;;;;;0.50;0.50;;;9.00;99.90;;;;;;5047401;28;21149;-80
2021/04/14 12:32:59;;;;;;;1.90;0.50;;;9.20;99.90;;;;;;5031572;28;20220;-82
2021/04/14 12:35:27;;;;;;;0.30;0.30;;;9.10;99.90;;;;;;5028999;28;20193;-81
2021/04/14 12:37:53;;;;;;;0.30;0.30;;;8.90;99.90;;;;;;5033114;28;20262;-81
2021/04/14 12:40:19;;;;;;;0.23;0.23;;;8.70;99.90;;;;;;5046344;28;20224;-80
2021/04/14 12:42:45;;;;;;;0.70;0.60;;;8.90;99.90;;;;;;5030567;28;20346;-82
2021/04/14 12:45:36;;;;;;;0.30;0.30;;;8.70;99.90;;;;;;5015682;28;20639;-83
2021/04/14 12:48:05;;;;;;;0.43;0.43;;;9.00;99.90;;;;;;5044203;28;20277;-81
2021/04/14 12:50:31;;;;;;;0.20;0.20;;;9.00;99.90;;;;;;5043495;28;20823;-82
2021/04/14 12:52:59;;;;;;;1.17;1.03;;;8.70;99.90;;;;;;5024118;28;20692;-81
2021/04/14 12:55:30;;;;;;;1.40;0.87;;;8.40;99.90;;;;;;5051813;28;20205;-81
2021/04/14 12:57:57;;;;;;;0.80;0.80;;;8.20;99.90;;;;;;5040633;28;20409;-81
2021/04/14 13:00:26;;;;;;;0.50;0.43;;;8.40;99.90;;;;;;5058004;28;20220;-81
2021/04/14 13:02:59;;;;;;;0.30;0.30;;;8.50;99.90;;;;;;5063521;28;20224;-80
2021/04/14 13:05:29;;;;;;;0.30;0.30;;;8.50;99.90;;;;;;5044029;28;20189;-82
2021/04/14 13:07:58;;;;;;;0.30;0.30;;;8.60;99.90;;;;;;5049612;28;20195;-82
2021/04/14 13:10:38;;;;;;;0.30;0.30;;;8.80;99.90;;;;;;5046353;28;20281;-81
2021/04/14 13:13:04;;;;;;;0.20;0.20;;;8.80;99.90;;;;;;5044350;28;20724;-81